Ir al Módulo  



logo_vatsim
logo_vatsur

 


CARNAVAL DE BARRANQUILLA 2015
Febrero 9 de 2015

LOS ESPERAMOS ÉSTE VIERNES 13 DE FEBRERO EN BARRANQUILLA!




NUEVO SECTOR FILE COLOMBIA
Octubre 16 de 2014

Los invitamos a descargar el nuevo SectorFile de Colombia!




Nuevo Escenario de Bogotá Recomendado
Septiembre 26 de 2014

Los invitamos a conocer el escenario desarrollado por LR30 Scenery Design de SKBO. Vatsim Colombia lo reconoce como escenario oficial de la red.

Links:

FS9: http://www.mediafire.com/download/gfuqcb7qb8r9q9n/BOG_2014_FS9.rar
FSX: http://www.mediafire.com/download/b8831kleqc5nc13/LR30_SKBO_V2.rar




 

 
Untitled Document
SKAR 281700Z 00000KT 9999 SCT022 BKN120 25/19 A3016
SKBG 281700Z 34007KT 5000 HZ BKN015 SCT090 24/20 A3008
SKBO 281700Z 04006KT 9999 SCT020 BKN080 17/10 A3040
SKBQ 281700Z 06010KT 9999 FEW015 32/25 A2991
SKCG 281700Z 34008KT 9999 FEW020 31/27 A2989
SKCL 281700Z 18003KT 9000 SCT020 28/20 A3006 RMK HZ
SKPE 281700Z 32004KT 9999 SCT015 SCT080 24/19 A3014
SKRG 281700Z 11008KT 9999 SCT020 SCT080 21/14 A3038